KTAD/TAD METAR and TAF weather

Enter ICAO airport designator
Station Type Date Time Source
KTAD METAR 2020/09/22 04:54 UTC NOAA

KTAD 220454Z AUTO 25010KT 10SM CLR 17/03 A3022 RMK AO2 SLP154 T01720033


Station Type Date Time Source
KTAD Decoded METAR 2020/09/22 04:54 UTC NOAA

Trinidad, Perry Stokes Airport, CO, United States (KTAD) 37-16N 104-26W
Sep 22, 2020 - 12:54 AM EDT / 2020.09.22 0454 UTC
Wind: from the WSW (250 degrees) at 12 MPH (10 KT):0
Visibility: 10 mile(s):0
Sky conditions: clear
Temperature: 63.0 F (17.2 C)
Dew Point: 37.9 F (3.3 C)
Relative Humidity: 39%
Pressure (altimeter): 30.22 in. Hg (1023 hPa)
ob: KTAD 220454Z AUTO 25010KT 10SM CLR 17/03 A3022 RMK AO2 SLP154 T01720033
cycle: 5

Station Type Date Time Source
KTAD TAF UTC NOAA

Error!

Example: see airport list